バルセロナ の空港の天気 - METARとTAF

バルセロナ・エル・プラット国際空港 ( LEBL / BCN ) - スペイン バルセロナ
飛行場実況気象(Metar)
観測時間01/20 06:00 CET (01/20 05:00 UTC)
風向・風速北北西 7m/s
視程10km以上
天気現象
少しの雲 雲底高度 1220m
気温7℃
湿度76%
気圧1021hPa
METARLEBL 200500Z 34013KT 9999 FEW040 07/03 Q1021 NOSIG
過去の天気等 Google飛行場航空写真 Wunderground天気予報

過去48時間のMETAR

飛行場予報(TAF)
発表時間: 1/20 00:00 CET (1/19 23:00 UTC)
予報対象時間: 20日1時 CET ~ 21日1時 CET
風向・風速北北西 3m/s
視程10km以上
少しの雲 雲底高度 910m
20日3時 CET ~ 20日9時 CET に一時的に
風向・風速北北西 5m/s 瞬間風速 11m/s
20日12時 CET ~ 20日14時 CET に徐々に
風向・風速西 5m/s
20日19時 CET ~ 20日21時 CET に徐々に
風向・風速北西 8m/s
20日23時 CET ~ 21日1時 CET に一時的に
風向・風速北西 10m/s 瞬間風速 18m/s
TAF LEBL 192300Z 2000/2024 33006KT 9999 FEW030 TX17/2013Z TN06/2007Z
TEMPO 2002/2008 34010G22KT
BECMG 2011/2013 26010KT
BECMG 2018/2020 31015KT
TEMPO 2022/2024 31020G35KT